Time;durP1;ratioP1;P1;durP2;ratioP2;P2;SDS_P1;SDS_P2;PMS_P1;PMS_P2;Temp;Humidity;BMP_temperature;BMP_pressure;BME280_temperature;BME280_humidity;BME280_pressure;Samples;Min_cycle;Max_cycle;Signal;HPM_P1;HPM_P2
2023/03/17 00:00:45;;;;;;;;;;;7.80;77.70;;;;;;4973840;28;19913;-68
2023/03/17 00:03:22;;;;;;;;;;;7.80;77.80;;;;;;4973755;28;19964;-68
2023/03/17 00:05:48;;;;;;;;;;;7.70;77.80;;;;;;4973747;28;20279;-68
2023/03/17 00:08:19;;;;;;;;;;;7.80;78.50;;;;;;4973915;28;19920;-68
2023/03/17 00:10:44;;;;;;;;;;;7.80;78.00;;;;;;4972934;28;19952;-68
2023/03/17 00:13:11;;;;;;;;;;;7.70;77.90;;;;;;4973685;28;19957;-68
2023/03/17 00:15:36;;;;;;;;;;;7.60;77.90;;;;;;4969500;28;19922;-68
2023/03/17 00:18:02;;;;;;;;;;;7.60;78.00;;;;;;4954354;29;19918;-68
2023/03/17 00:20:29;;;;;;;;;;;7.60;78.10;;;;;;4970173;28;20417;-71
2023/03/17 00:22:58;;;;;;;;;;;7.60;78.20;;;;;;4974133;28;19921;-70
2023/03/17 00:25:26;;;;;;;;;;;7.50;78.30;;;;;;4974047;28;19906;-68
2023/03/17 00:27:52;;;;;;;;;;;7.50;78.40;;;;;;4954277;28;20281;-68
2023/03/17 00:30:18;;;;;;;;;;;7.40;78.40;;;;;;4973466;28;19917;-68
2023/03/17 00:32:44;;;;;;;;;;;7.40;78.40;;;;;;4973423;28;19956;-67
2023/03/17 00:35:14;;;;;;;;;;;7.40;78.50;;;;;;4971984;28;19914;-68
2023/03/17 00:37:40;;;;;;;;;;;7.40;78.50;;;;;;4973288;28;19942;-68
2023/03/17 00:40:14;;;;;;;;;;;7.40;78.50;;;;;;4973286;28;19906;-68
2023/03/17 00:42:39;;;;;;;;;;;7.40;78.60;;;;;;4973369;28;19906;-68
2023/03/17 00:45:05;;;;;;;;;;;7.40;78.50;;;;;;4973285;28;19957;-68
2023/03/17 00:47:31;;;;;;;;;;;7.30;78.50;;;;;;4973080;28;19921;-70
2023/03/17 00:49:57;;;;;;;;;;;7.40;78.60;;;;;;4973068;28;19922;-67
2023/03/17 00:52:22;;;;;;;;;;;7.30;78.60;;;;;;4973014;28;19914;-70
2023/03/17 00:54:48;;;;;;;;;;;7.30;78.60;;;;;;4973210;28;20387;-68
2023/03/17 00:57:13;;;;;;;;;;;7.30;79.20;;;;;;4972781;28;19918;-68
2023/03/17 00:59:41;;;;;;;;;;;7.30;78.50;;;;;;4971684;28;19922;-68
2023/03/17 01:02:09;;;;;;;;;;;7.30;78.60;;;;;;4972763;28;19906;-68
2023/03/17 01:04:34;;;;;;;;;;;7.20;78.50;;;;;;4972544;28;19913;-68
2023/03/17 01:07:00;;;;;;;;;;;7.30;79.20;;;;;;4972657;28;19906;-68
2023/03/17 01:09:26;;;;;;;;;;;7.30;78.60;;;;;;4972561;28;20352;-68
2023/03/17 01:11:53;;;;;;;;;;;7.30;78.60;;;;;;4972622;28;19958;-67
2023/03/17 01:14:19;;;;;;;;;;;7.20;78.60;;;;;;4972567;28;20311;-67
2023/03/17 01:16:46;;;;;;;;;;;7.20;78.60;;;;;;4971200;28;19926;-70
2023/03/17 01:19:12;;;;;;;;;;;7.20;78.50;;;;;;4972759;28;19914;-70
2023/03/17 01:21:38;;;;;;;;;;;7.20;78.50;;;;;;4972312;28;20327;-70
2023/03/17 01:24:03;;;;;;;;;;;7.20;78.50;;;;;;4954968;28;20724;-70
2023/03/17 01:26:29;;;;;;;;;;;7.20;78.50;;;;;;4972474;28;19906;-70
2023/03/17 01:28:55;;;;;;;;;;;7.20;78.60;;;;;;4955147;28;20252;-71
2023/03/17 01:31:22;;;;;;;;;;;7.30;78.60;;;;;;4972365;28;19913;-70
2023/03/17 01:33:47;;;;;;;;;;;7.30;78.50;;;;;;4972223;28;19906;-70
2023/03/17 01:36:14;;;;;;;;;;;7.10;78.40;;;;;;4972492;28;19936;-70
2023/03/17 01:38:40;;;;;;;;;;;7.20;78.60;;;;;;4972441;28;20013;-70
2023/03/17 01:41:05;;;;;;;;;;;7.30;78.60;;;;;;4971116;28;19926;-69
2023/03/17 01:43:31;;;;;;;;;;;7.10;78.50;;;;;;4972299;28;19914;-69
2023/03/17 01:46:17;;;;;;;;;;;7.10;78.50;;;;;;4972203;28;19913;-70
2023/03/17 01:49:04;;;;;;;;;;;7.10;78.50;;;;;;4971473;28;20389;-70
2023/03/17 01:51:35;;;;;;;;;;;7.10;78.50;;;;;;4971825;28;20000;-69
2023/03/17 01:54:05;;;;;;;;;;;7.10;78.60;;;;;;4972013;28;19972;-70
2023/03/17 01:56:31;;;;;;;;;;;7.10;78.60;;;;;;4971903;28;19910;-70
2023/03/17 01:58:58;;;;;;;;;;;7.00;78.60;;;;;;4972043;28;19981;-70
2023/03/17 02:01:26;;;;;;;;;;;7.00;78.60;;;;;;4972098;28;20330;-69
2023/03/17 02:03:52;;;;;;;;;;;7.00;78.60;;;;;;4970707;28;20304;-69
2023/03/17 02:06:18;;;;;;;;;;;7.00;78.60;;;;;;4971189;28;19914;-70
2023/03/17 02:08:43;;;;;;;;;;;7.00;78.60;;;;;;4972555;28;19906;-70
2023/03/17 02:11:09;;;;;;;;;;;7.00;78.70;;;;;;4972441;28;20206;-70
2023/03/17 02:13:35;;;;;;;;;;;7.00;78.70;;;;;;4972257;28;19997;-70
2023/03/17 02:16:01;;;;;;;;;;;7.00;78.70;;;;;;4972030;28;19913;-70
2023/03/17 02:18:26;;;;;;;;;;;7.00;78.70;;;;;;4971867;28;20343;-69
2023/03/17 02:21:12;;;;;;;;;;;6.90;78.70;;;;;;4971722;28;19944;-70
2023/03/17 02:23:38;;;;;;;;;;;6.90;78.70;;;;;;4971160;28;19906;-69
2023/03/17 02:26:04;;;;;;;;;;;7.00;78.80;;;;;;4972167;28;20052;-67
2023/03/17 02:28:29;;;;;;;;;;;6.90;78.80;;;;;;4971753;28;19949;-70
2023/03/17 02:30:56;;;;;;;;;;;6.90;78.80;;;;;;4971503;28;21320;-70
2023/03/17 02:33:22;;;;;;;;;;;6.80;78.90;;;;;;4972530;28;20012;-70
2023/03/17 02:35:47;;;;;;;;;;;6.80;78.90;;;;;;4975041;28;19968;-70
2023/03/17 02:38:13;;;;;;;;;;;6.80;78.90;;;;;;4974828;28;19918;-70
2023/03/17 02:40:38;;;;;;;;;;;6.80;78.90;;;;;;4974744;28;20020;-70
2023/03/17 02:43:04;;;;;;;;;;;6.80;78.90;;;;;;4974885;28;19920;-69
2023/03/17 02:45:30;;;;;;;;;;;6.90;78.90;;;;;;4974958;28;19906;-70
2023/03/17 02:47:56;;;;;;;;;;;6.90;78.90;;;;;;4973457;28;20276;-69
2023/03/17 02:50:23;;;;;;;;;;;6.80;78.80;;;;;;4974757;28;19906;-69
2023/03/17 02:52:50;;;;;;;;;;;6.80;78.70;;;;;;4974804;28;20398;-69
2023/03/17 02:55:16;;;;;;;;;;;6.80;78.60;;;;;;4974623;28;19936;-69
2023/03/17 02:57:41;;;;;;;;;;;6.80;78.60;;;;;;4974574;28;19954;-69
2023/03/17 03:00:10;;;;;;;;;;;6.90;78.70;;;;;;4974471;28;19918;-69
2023/03/17 03:02:36;;;;;;;;;;;6.90;78.70;;;;;;4953671;29;19981;-69
2023/03/17 03:05:02;;;;;;;;;;;6.90;78.60;;;;;;4955374;29;19907;-69
2023/03/17 03:07:28;;;;;;;;;;;6.90;78.60;;;;;;4955265;29;20044;-69
2023/03/17 03:09:53;;;;;;;;;;;6.90;78.70;;;;;;4937775;29;19906;-69
2023/03/17 03:12:19;;;;;;;;;;;6.80;78.60;;;;;;4965089;28;19906;-68
2023/03/17 03:14:44;;;;;;;;;;;6.90;78.60;;;;;;4973522;28;20004;-69
2023/03/17 03:17:10;;;;;;;;;;;7.00;78.60;;;;;;4974419;28;19920;-69
2023/03/17 03:19:35;;;;;;;;;;;7.10;78.60;;;;;;4974506;28;19929;-69
2023/03/17 03:22:01;;;;;;;;;;;6.90;78.40;;;;;;4973127;28;20248;-68
2023/03/17 03:24:27;;;;;;;;;;;7.00;78.40;;;;;;4974138;28;20427;-69
2023/03/17 03:26:52;;;;;;;;;;;6.90;78.30;;;;;;4974141;28;19914;-69
2023/03/17 03:29:18;;;;;;;;;;;7.00;78.30;;;;;;4956646;28;19921;-69
2023/03/17 03:31:43;;;;;;;;;;;7.00;78.20;;;;;;4955770;28;19910;-69
2023/03/17 03:34:09;;;;;;;;;;;7.00;78.20;;;;;;4953490;28;19919;-69
2023/03/17 03:36:35;;;;;;;;;;;7.00;78.10;;;;;;4972767;28;19906;-69
2023/03/17 03:39:02;;;;;;;;;;;7.10;78.10;;;;;;4955231;28;19910;-69
2023/03/17 03:41:27;;;;;;;;;;;7.10;78.10;;;;;;4973992;28;19906;-69
2023/03/17 03:43:53;;;;;;;;;;;7.10;78.00;;;;;;4973483;28;19912;-69
2023/03/17 03:46:18;;;;;;;;;;;7.10;77.90;;;;;;4972921;28;19914;-69
2023/03/17 03:48:44;;;;;;;;;;;7.10;78.00;;;;;;4972454;28;19925;-69
2023/03/17 03:51:09;;;;;;;;;;;7.10;77.90;;;;;;4973821;28;19906;-69
2023/03/17 03:53:35;;;;;;;;;;;7.10;78.00;;;;;;4973846;28;19928;-69
2023/03/17 03:56:00;;;;;;;;;;;7.20;78.70;;;;;;4973869;28;19906;-69
2023/03/17 03:58:26;;;;;;;;;;;7.10;78.00;;;;;;4973815;28;19914;-69
2023/03/17 04:00:51;;;;;;;;;;;7.00;78.00;;;;;;4973778;28;19917;-69
2023/03/17 04:03:17;;;;;;;;;;;7.10;78.10;;;;;;4973539;28;19941;-69
2023/03/17 04:05:43;;;;;;;;;;;7.20;78.20;;;;;;4973605;28;20256;-69
2023/03/17 04:08:09;;;;;;;;;;;7.10;78.10;;;;;;4974078;28;19906;-69
2023/03/17 04:10:35;;;;;;;;;;;7.00;78.10;;;;;;4973604;28;20758;-69
2023/03/17 04:13:01;;;;;;;;;;;7.00;78.20;;;;;;4956095;28;20371;-69
2023/03/17 04:15:26;;;;;;;;;;;7.00;78.20;;;;;;4973532;28;19906;-69
2023/03/17 04:17:53;;;;;;;;;;;7.00;78.20;;;;;;4973412;28;20008;-69
2023/03/17 04:20:19;;;;;;;;;;;7.00;78.30;;;;;;4973491;28;19982;-69
2023/03/17 04:22:45;;;;;;;;;;;7.10;78.30;;;;;;4973389;28;19922;-69
2023/03/17 04:25:13;;;;;;;;;;;6.90;78.20;;;;;;4973355;28;19956;-69
2023/03/17 04:27:38;;;;;;;;;;;7.00;78.30;;;;;;4973328;28;19909;-69
2023/03/17 04:30:04;;;;;;;;;;;6.90;78.40;;;;;;4973292;28;20343;-69
2023/03/17 04:32:30;;;;;;;;;;;6.80;78.40;;;;;;4973213;28;20217;-69
2023/03/17 04:34:56;;;;;;;;;;;7.00;78.50;;;;;;4973632;28;20419;-68
2023/03/17 04:37:22;;;;;;;;;;;6.80;78.50;;;;;;4973504;28;20114;-69
2023/03/17 04:39:48;;;;;;;;;;;6.80;78.60;;;;;;4973173;28;19972;-69
2023/03/17 04:42:13;;;;;;;;;;;6.80;78.70;;;;;;4973126;28;20244;-69
2023/03/17 04:44:39;;;;;;;;;;;6.80;79.30;;;;;;4972936;28;19918;-69
2023/03/17 04:47:04;;;;;;;;;;;6.80;78.70;;;;;;4972804;28;19918;-69
2023/03/17 04:49:30;;;;;;;;;;;6.80;78.70;;;;;;4955622;28;20348;-69
2023/03/17 04:51:55;;;;;;;;;;;6.80;78.70;;;;;;4973402;28;19938;-69
2023/03/17 04:54:21;;;;;;;;;;;6.70;78.70;;;;;;4973039;28;19913;-69
2023/03/17 04:56:46;;;;;;;;;;;6.70;78.80;;;;;;4972533;28;20004;-69
2023/03/17 04:59:12;;;;;;;;;;;6.70;78.90;;;;;;4973029;28;20355;-69
2023/03/17 05:01:37;;;;;;;;;;;6.70;78.90;;;;;;4972840;28;19906;-70
2023/03/17 05:04:03;;;;;;;;;;;6.60;78.90;;;;;;4973035;28;19989;-70
2023/03/17 05:06:29;;;;;;;;;;;6.70;79.00;;;;;;4973396;28;19916;-70
2023/03/17 05:08:54;;;;;;;;;;;6.60;79.00;;;;;;4972970;28;19917;-70
2023/03/17 05:11:20;;;;;;;;;;;6.60;79.00;;;;;;4972707;28;19914;-69
2023/03/17 05:13:45;;;;;;;;;;;6.60;78.90;;;;;;4972849;28;19914;-69
2023/03/17 05:16:11;;;;;;;;;;;6.60;78.90;;;;;;4972907;28;20363;-70
2023/03/17 05:18:37;;;;;;;;;;;6.60;78.90;;;;;;4972931;28;19934;-70
2023/03/17 05:21:03;;;;;;;;;;;6.60;78.90;;;;;;4972953;28;19906;-70
2023/03/17 05:23:29;;;;;;;;;;;6.70;78.90;;;;;;4972765;28;19914;-70
2023/03/17 05:25:54;;;;;;;;;;;6.60;78.80;;;;;;4972457;28;19910;-70
2023/03/17 05:28:20;;;;;;;;;;;6.60;78.80;;;;;;4972565;28;19917;-70
2023/03/17 05:30:47;;;;;;;;;;;6.60;78.80;;;;;;4972651;28;19913;-69
2023/03/17 05:33:13;;;;;;;;;;;6.60;78.80;;;;;;4972753;28;19906;-70
2023/03/17 05:35:39;;;;;;;;;;;6.60;78.80;;;;;;4972604;28;20000;-70
2023/03/17 05:38:05;;;;;;;;;;;6.60;78.90;;;;;;4971414;28;20440;-69
2023/03/17 05:40:31;;;;;;;;;;;6.60;78.90;;;;;;4972796;28;20279;-70
2023/03/17 05:42:56;;;;;;;;;;;6.50;78.90;;;;;;4971364;28;19906;-70
2023/03/17 05:45:22;;;;;;;;;;;6.50;79.00;;;;;;4954935;28;20058;-67
2023/03/17 05:47:47;;;;;;;;;;;6.50;79.00;;;;;;4972483;28;20476;-70
2023/03/17 05:50:13;;;;;;;;;;;6.50;79.10;;;;;;4972376;28;19954;-70
2023/03/17 05:52:39;;;;;;;;;;;6.50;79.10;;;;;;4972528;28;19906;-69
2023/03/17 05:55:05;;;;;;;;;;;6.40;79.00;;;;;;4955074;28;19928;-69
2023/03/17 05:57:30;;;;;;;;;;;6.40;79.10;;;;;;4972352;28;20817;-69
2023/03/17 05:59:56;;;;;;;;;;;6.50;79.10;;;;;;4972218;28;19914;-69
2023/03/17 06:02:21;;;;;;;;;;;6.50;79.10;;;;;;4972333;28;20277;-69
2023/03/17 06:04:47;;;;;;;;;;;6.50;79.10;;;;;;4970826;28;19914;-70
2023/03/17 06:07:12;;;;;;;;;;;6.50;79.00;;;;;;4972080;28;19952;-69
2023/03/17 06:09:38;;;;;;;;;;;6.50;79.00;;;;;;4975104;28;19907;-70
2023/03/17 06:12:05;;;;;;;;;;;6.60;79.00;;;;;;4975813;28;19957;-69
2023/03/17 06:14:31;;;;;;;;;;;6.60;79.00;;;;;;4975472;28;19913;-70
2023/03/17 06:16:56;;;;;;;;;;;6.50;78.90;;;;;;4975525;28;19918;-70
2023/03/17 06:19:22;;;;;;;;;;;6.40;78.80;;;;;;4975589;28;20247;-70
2023/03/17 06:21:47;;;;;;;;;;;6.60;78.90;;;;;;4975671;28;19920;-69
2023/03/17 06:24:13;;;;;;;;;;;6.50;78.90;;;;;;4957919;28;19974;-70
2023/03/17 06:26:39;;;;;;;;;;;6.50;78.90;;;;;;4954150;28;19930;-69
2023/03/17 06:29:07;;;;;;;;;;;6.50;78.90;;;;;;4975283;28;19957;-70
2023/03/17 06:31:33;;;;;;;;;;;6.50;78.90;;;;;;4975169;28;19906;-70
2023/03/17 06:33:59;;;;;;;;;;;6.60;78.90;;;;;;4975132;28;19997;-70
2023/03/17 06:36:24;;;;;;;;;;;6.60;78.80;;;;;;4975201;28;19929;-70
2023/03/17 06:38:50;;;;;;;;;;;6.60;78.80;;;;;;4973679;28;19977;-67
2023/03/17 06:41:15;;;;;;;;;;;6.60;78.70;;;;;;4974849;28;19996;-70
2023/03/17 06:43:41;;;;;;;;;;;6.60;78.80;;;;;;4974920;28;19906;-70
2023/03/17 06:46:07;;;;;;;;;;;6.60;78.80;;;;;;4975154;28;20009;-69
2023/03/17 06:48:32;;;;;;;;;;;6.60;78.80;;;;;;4975175;28;20013;-69
2023/03/17 06:50:58;;;;;;;;;;;6.70;78.80;;;;;;4975054;28;19922;-69
2023/03/17 06:53:24;;;;;;;;;;;6.60;78.80;;;;;;4973564;28;20344;-69
2023/03/17 06:55:50;;;;;;;;;;;6.70;78.70;;;;;;4974753;28;19914;-69
2023/03/17 06:58:15;;;;;;;;;;;6.80;78.70;;;;;;4974692;28;19988;-69
2023/03/17 07:00:44;;;;;;;;;;;6.90;78.70;;;;;;4974811;28;19907;-69
2023/03/17 07:03:10;;;;;;;;;;;6.80;78.60;;;;;;4974770;28;19907;-69
2023/03/17 07:05:36;;;;;;;;;;;6.90;78.50;;;;;;4973341;28;19963;-69
2023/03/17 07:08:02;;;;;;;;;;;6.90;78.40;;;;;;4974593;28;20001;-69
2023/03/17 07:10:27;;;;;;;;;;;7.10;78.40;;;;;;4974727;28;20349;-69
2023/03/17 07:12:53;;;;;;;;;;;7.10;78.20;;;;;;4974495;28;19914;-69
2023/03/17 07:15:19;;;;;;;;;;;7.30;78.20;;;;;;4974406;28;19914;-69
2023/03/17 07:17:46;;;;;;;;;;;7.20;78.00;;;;;;4974234;28;19969;-69
2023/03/17 07:20:12;;;;;;;;;;;7.30;77.90;;;;;;4974037;28;19913;-69
2023/03/17 07:22:38;;;;;;;;;;;7.40;77.80;;;;;;4974194;28;19946;-69
2023/03/17 07:25:04;;;;;;;;;;;7.50;77.60;;;;;;4974182;28;20004;-69
2023/03/17 07:27:30;;;;;;;;;;;7.60;77.50;;;;;;4974201;28;19906;-69
2023/03/17 07:29:55;;;;;;;;;;;7.70;77.30;;;;;;4956755;28;19989;-69
2023/03/17 07:32:21;;;;;;;;;;;7.80;77.20;;;;;;4972912;28;20008;-69
2023/03/17 07:34:47;;;;;;;;;;;7.90;77.00;;;;;;4972910;28;19917;-69
2023/03/17 07:37:12;;;;;;;;;;;8.00;76.90;;;;;;4974181;28;19922;-69
2023/03/17 07:39:38;;;;;;;;;;;8.10;76.70;;;;;;4974152;28;19910;-69
2023/03/17 07:42:04;;;;;;;;;;;8.20;76.60;;;;;;4974145;28;20002;-69
2023/03/17 07:44:31;;;;;;;;;;;8.30;76.50;;;;;;4973911;28;20253;-69
2023/03/17 07:46:56;;;;;;;;;;;8.40;76.40;;;;;;4974360;28;19922;-70
2023/03/17 07:49:22;;;;;;;;;;;8.50;76.30;;;;;;4974063;28;19967;-69
2023/03/17 07:51:47;;;;;;;;;;;8.60;76.20;;;;;;4973998;28;19956;-70
2023/03/17 07:54:14;;;;;;;;;;;8.60;76.10;;;;;;4974007;28;20447;-69
2023/03/17 07:56:40;;;;;;;;;;;8.70;76.00;;;;;;4973839;28;19913;-69
2023/03/17 07:59:07;;;;;;;;;;;8.90;76.00;;;;;;4973750;28;19981;-69
2023/03/17 08:01:33;;;;;;;;;;;8.90;75.80;;;;;;4973583;28;20370;-69
2023/03/17 08:03:59;;;;;;;;;;;9.00;75.80;;;;;;4973547;28;19918;-69
2023/03/17 08:06:25;;;;;;;;;;;9.20;75.70;;;;;;4973643;28;19969;-69
2023/03/17 08:09:03;;;;;;;;;;;9.30;75.60;;;;;;4973790;28;19906;-69
2023/03/17 08:11:29;;;;;;;;;;;9.30;75.50;;;;;;4972968;28;19914;-68
2023/03/17 08:13:56;;;;;;;;;;;9.40;75.50;;;;;;4973963;28;19921;-68
2023/03/17 08:16:21;;;;;;;;;;;9.50;75.50;;;;;;4973490;28;20391;-68
2023/03/17 08:18:47;;;;;;;;;;;9.60;75.50;;;;;;4973739;28;19968;-68
2023/03/17 08:21:12;;;;;;;;;;;9.60;75.40;;;;;;4973662;28;20309;-68
2023/03/17 08:23:38;;;;;;;;;;;9.80;75.40;;;;;;4973573;28;19906;-68
2023/03/17 08:26:03;;;;;;;;;;;9.90;75.30;;;;;;4973187;28;19907;-68
2023/03/17 08:28:30;;;;;;;;;;;10.00;75.20;;;;;;4973687;28;20005;-68
2023/03/17 08:31:05;;;;;;;;;;;10.10;75.10;;;;;;4972620;28;19906;-68
2023/03/17 08:33:31;;;;;;;;;;;10.20;75.10;;;;;;4973311;28;19914;-68
2023/03/17 08:35:56;;;;;;;;;;;10.40;75.10;;;;;;4973195;28;21113;-68
2023/03/17 08:38:22;;;;;;;;;;;10.40;75.00;;;;;;4973363;28;19965;-68
2023/03/17 08:40:49;;;;;;;;;;;10.50;75.00;;;;;;4973225;28;19936;-68
2023/03/17 08:43:15;;;;;;;;;;;10.60;75.00;;;;;;4973308;28;19906;-68
2023/03/17 08:45:42;;;;;;;;;;;10.70;74.90;;;;;;4973082;28;20367;-68
2023/03/17 08:48:08;;;;;;;;;;;10.80;74.90;;;;;;4973344;28;19913;-67
2023/03/17 08:50:34;;;;;;;;;;;10.80;74.80;;;;;;4972898;28;19945;-67
2023/03/17 08:53:00;;;;;;;;;;;10.90;74.80;;;;;;4972917;28;19976;-68
2023/03/17 08:55:26;;;;;;;;;;;11.00;74.70;;;;;;4955441;28;19910;-68
2023/03/17 08:57:51;;;;;;;;;;;11.10;74.70;;;;;;4972776;28;19965;-68
2023/03/17 09:00:19;;;;;;;;;;;11.20;74.70;;;;;;4972771;28;19906;-68
2023/03/17 09:02:45;;;;;;;;;;;11.20;74.60;;;;;;4972887;28;20055;-68
2023/03/17 09:05:12;;;;;;;;;;;11.30;74.60;;;;;;4972933;28;19906;-68
2023/03/17 09:07:38;;;;;;;;;;;11.50;74.50;;;;;;4972709;28;19929;-68
2023/03/17 09:10:04;;;;;;;;;;;11.60;74.30;;;;;;4972720;28;19978;-68
2023/03/17 09:12:30;;;;;;;;;;;11.60;74.10;;;;;;4972722;28;19969;-68
2023/03/17 09:14:55;;;;;;;;;;;11.80;74.10;;;;;;4973024;28;19937;-68
2023/03/17 09:17:22;;;;;;;;;;;11.80;74.00;;;;;;4972373;28;19918;-67
2023/03/17 09:19:48;;;;;;;;;;;11.90;74.00;;;;;;4972403;28;20756;-69
2023/03/17 09:22:14;;;;;;;;;;;12.00;74.00;;;;;;4972459;28;19914;-68
2023/03/17 09:24:40;;;;;;;;;;;12.00;73.90;;;;;;4972903;28;19913;-68
2023/03/17 09:27:06;;;;;;;;;;;12.10;73.90;;;;;;4972272;28;20355;-68
2023/03/17 09:29:32;;;;;;;;;;;12.20;73.80;;;;;;4972287;28;19989;-68
2023/03/17 09:31:58;;;;;;;;;;;12.20;73.70;;;;;;4972442;28;20000;-68
2023/03/17 09:34:24;;;;;;;;;;;12.30;73.70;;;;;;4972453;28;20006;-68
2023/03/17 09:36:49;;;;;;;;;;;12.40;73.70;;;;;;4971265;28;19914;-68
2023/03/17 09:39:15;;;;;;;;;;;12.40;73.70;;;;;;4972485;28;19961;-68
2023/03/17 09:41:48;;;;;;;;;;;12.50;73.90;;;;;;4972364;28;20284;-68
2023/03/17 09:44:25;;;;;;;;;;;12.40;73.80;;;;;;4972613;28;19906;-68
2023/03/17 09:47:01;;;;;;;;;;;12.50;73.70;;;;;;4972277;28;19965;-68
2023/03/17 09:49:43;;;;;;;;;;;12.60;73.70;;;;;;4954906;28;19906;-68
2023/03/17 09:52:13;;;;;;;;;;;12.70;73.60;;;;;;4972230;28;20434;-68
2023/03/17 09:54:40;;;;;;;;;;;12.90;73.50;;;;;;4972221;28;19964;-68
2023/03/17 09:57:11;;;;;;;;;;;13.00;73.20;;;;;;4972124;28;19969;-68
2023/03/17 09:59:38;;;;;;;;;;;13.10;73.10;;;;;;4972332;28;19999;-68
2023/03/17 10:02:14;;;;;;;;;;;13.20;72.80;;;;;;4972371;28;19992;-68
2023/03/17 10:04:41;;;;;;;;;;;13.40;72.80;;;;;;4972225;28;19922;-68
2023/03/17 10:07:09;;;;;;;;;;;13.50;72.70;;;;;;4971954;28;19922;-68
2023/03/17 10:09:40;;;;;;;;;;;13.50;72.40;;;;;;4971917;28;19933;-68
2023/03/17 10:12:09;;;;;;;;;;;13.50;72.20;;;;;;4971793;28;19914;-68
2023/03/17 10:14:53;;;;;;;;;;;13.70;72.20;;;;;;4972238;28;19913;-68
2023/03/17 10:17:20;;;;;;;;;;;13.80;72.20;;;;;;4971978;28;20012;-68
2023/03/17 10:20:03;;;;;;;;;;;13.90;72.00;;;;;;4971998;28;19973;-68
2023/03/17 10:22:33;;;;;;;;;;;13.80;72.00;;;;;;4972063;28;19962;-68
2023/03/17 10:25:02;;;;;;;;;;;13.80;72.00;;;;;;4971884;28;19910;-68
2023/03/17 10:27:30;;;;;;;;;;;13.90;72.20;;;;;;4971748;28;19910;-68
2023/03/17 10:29:56;;;;;;;;;;;14.00;72.30;;;;;;4971912;28;19944;-68
2023/03/17 10:32:22;;;;;;;;;;;14.10;72.30;;;;;;4954678;28;19949;-68
2023/03/17 10:34:47;;;;;;;;;;;14.30;72.20;;;;;;4971863;28;19966;-68
2023/03/17 10:37:17;;;;;;;;;;;14.30;72.00;;;;;;4971794;28;19922;-68
2023/03/17 10:39:45;;;;;;;;;;;14.40;72.00;;;;;;4971750;28;19910;-68
2023/03/17 10:42:19;;;;;;;;;;;14.40;71.80;;;;;;4971645;28;19914;-68
2023/03/17 10:44:52;;;;;;;;;;;14.50;71.70;;;;;;4971571;28;20391;-68
2023/03/17 10:47:20;;;;;;;;;;;14.60;71.60;;;;;;4972005;28;19910;-68
2023/03/17 10:49:46;;;;;;;;;;;14.60;71.30;;;;;;4971654;28;20352;-68
2023/03/17 10:52:18;;;;;;;;;;;14.60;71.40;;;;;;4971883;28;20375;-68
2023/03/17 10:54:46;;;;;;;;;;;14.60;71.60;;;;;;4973353;28;20383;-68
2023/03/17 10:57:13;;;;;;;;;;;14.60;71.70;;;;;;4975098;28;20372;-68
2023/03/17 10:59:42;;;;;;;;;;;14.60;71.60;;;;;;4975209;28;19914;-68
2023/03/17 11:02:19;;;;;;;;;;;14.70;71.60;;;;;;4975185;28;19968;-68
2023/03/17 11:04:45;;;;;;;;;;;14.70;71.60;;;;;;4957327;28;20291;-68
2023/03/17 11:07:16;;;;;;;;;;;14.80;71.60;;;;;;4975117;28;19941;-68
2023/03/17 11:09:42;;;;;;;;;;;14.80;71.50;;;;;;4975058;28;20041;-68
2023/03/17 11:12:26;;;;;;;;;;;14.90;71.60;;;;;;4975205;28;19914;-69
2023/03/17 11:15:00;;;;;;;;;;;15.00;71.50;;;;;;4974998;28;19936;-68
2023/03/17 11:17:36;;;;;;;;;;;15.00;71.40;;;;;;4974903;28;19925;-68
2023/03/17 11:20:10;;;;;;;;;;;15.10;71.30;;;;;;4973534;28;20347;-68
2023/03/17 11:22:38;;;;;;;;;;;15.20;71.10;;;;;;4957054;28;19910;-67
2023/03/17 11:25:19;;;;;;;;;;;15.20;71.10;;;;;;4974648;28;20317;-68
2023/03/17 11:27:51;;;;;;;;;;;15.30;71.20;;;;;;4974755;28;19914;-68
2023/03/17 11:30:24;;;;;;;;;;;15.50;71.10;;;;;;4974502;28;19913;-68
2023/03/17 11:32:55;;;;;;;;;;;15.50;70.90;;;;;;4974398;28;19913;-68
2023/03/17 11:35:33;;;;;;;;;;;15.50;70.70;;;;;;4974914;28;19913;-68
2023/03/17 11:38:06;;;;;;;;;;;15.50;70.80;;;;;;4974440;28;20332;-69
2023/03/17 11:40:33;;;;;;;;;;;15.60;70.90;;;;;;4974415;28;20367;-68
2023/03/17 11:43:12;;;;;;;;;;;15.60;70.90;;;;;;4974749;28;20427;-69
2023/03/17 11:45:45;;;;;;;;;;;15.60;71.10;;;;;;4957366;28;20291;-68
2023/03/17 11:48:23;;;;;;;;;;;15.60;71.10;;;;;;4974790;28;19914;-68
2023/03/17 11:50:53;;;;;;;;;;;15.70;71.10;;;;;;4974563;28;19920;-69
2023/03/17 11:53:33;;;;;;;;;;;15.80;71.20;;;;;;4974495;28;19914;-68
2023/03/17 11:56:04;;;;;;;;;;;15.90;71.00;;;;;;4974504;28;19914;-68
2023/03/17 11:58:34;;;;;;;;;;;16.10;70.80;;;;;;4975096;28;19918;-68
2023/03/17 12:01:01;;;;;;;;;;;16.30;70.60;;;;;;4975051;28;19914;-68
2023/03/17 12:03:32;;;;;;;;;;;16.30;70.50;;;;;;4974643;28;20013;-68
2023/03/17 12:06:00;;;;;;;;;;;16.40;70.30;;;;;;4973486;28;19960;-68
2023/03/17 12:08:30;;;;;;;;;;;16.50;70.30;;;;;;4974603;28;19914;-68
2023/03/17 12:10:57;;;;;;;;;;;16.70;70.30;;;;;;4974642;28;20406;-68
2023/03/17 12:13:28;;;;;;;;;;;16.70;70.10;;;;;;4974397;28;19984;-68
2023/03/17 12:16:02;;;;;;;;;;;16.70;70.10;;;;;;4974535;28;20338;-68
2023/03/17 12:18:45;;;;;;;;;;;16.80;70.10;;;;;;4973690;28;19988;-68
2023/03/17 12:21:19;;;;;;;;;;;16.80;70.10;;;;;;4974430;28;19906;-68
2023/03/17 12:23:48;;;;;;;;;;;16.90;70.10;;;;;;4973302;28;19909;-68
2023/03/17 12:26:20;;;;;;;;;;;16.90;70.10;;;;;;4974435;28;20343;-68
2023/03/17 12:28:49;;;;;;;;;;;17.00;70.20;;;;;;4974810;28;19914;-68
2023/03/17 12:31:21;;;;;;;;;;;17.00;70.20;;;;;;4974481;28;19913;-69
2023/03/17 12:33:56;;;;;;;;;;;17.10;71.00;;;;;;4973984;28;19914;-69
2023/03/17 12:36:22;;;;;;;;;;;17.10;70.20;;;;;;4973822;28;20335;-68
2023/03/17 12:38:52;;;;;;;;;;;17.20;70.30;;;;;;4973850;28;19925;-69
2023/03/17 12:41:26;;;;;;;;;;;17.20;70.20;;;;;;4973852;28;19921;-69
2023/03/17 12:44:06;;;;;;;;;;;17.20;70.30;;;;;;4973691;28;20342;-68
2023/03/17 12:46:42;;;;;;;;;;;17.30;70.10;;;;;;4973740;28;19914;-68
2023/03/17 12:49:23;;;;;;;;;;;17.30;70.10;;;;;;4973621;28;19980;-68
2023/03/17 12:51:56;;;;;;;;;;;17.40;69.90;;;;;;4973789;28;20244;-69
2023/03/17 12:54:26;;;;;;;;;;;17.40;69.80;;;;;;4973909;28;19914;-68
2023/03/17 12:56:52;;;;;;;;;;;17.40;70.00;;;;;;4973426;28;19914;-69
2023/03/17 12:59:20;;;;;;;;;;;17.50;70.20;;;;;;4973366;28;20335;-69
2023/03/17 13:01:57;;;;;;;;;;;17.50;70.20;;;;;;4973675;28;19974;-69
2023/03/17 13:04:24;;;;;;;;;;;17.50;70.10;;;;;;4973369;28;19961;-68
2023/03/17 13:07:07;;;;;;;;;;;17.50;70.10;;;;;;4973551;28;19914;-69
2023/03/17 13:09:42;;;;;;;;;;;17.50;70.10;;;;;;4973527;28;19914;-69
2023/03/17 13:12:27;;;;;;;;;;;17.60;70.20;;;;;;4973298;28;20008;-69
2023/03/17 13:14:53;;;;;;;;;;;17.60;70.20;;;;;;4973280;28;19965;-69
2023/03/17 13:17:36;;;;;;;;;;;17.70;70.20;;;;;;4955561;28;19961;-69
2023/03/17 13:20:18;;;;;;;;;;;17.70;70.20;;;;;;4973214;28;19954;-69
2023/03/17 13:23:02;;;;;;;;;;;17.70;70.40;;;;;;4973104;28;19937;-68
2023/03/17 13:25:30;;;;;;;;;;;17.60;70.40;;;;;;4973156;28;19906;-69
2023/03/17 13:28:12;;;;;;;;;;;17.70;70.50;;;;;;4973306;28;19909;-69
2023/03/17 13:31:02;;;;;;;;;;;17.70;70.50;;;;;;4973373;28;19921;-69
2023/03/17 13:33:31;;;;;;;;;;;17.70;70.60;;;;;;4973280;28;20016;-69
2023/03/17 13:36:08;;;;;;;;;;;17.80;70.80;;;;;;4973017;28;20000;-69
2023/03/17 13:38:40;;;;;;;;;;;17.70;70.80;;;;;;4972368;28;20366;-69
2023/03/17 13:41:25;;;;;;;;;;;17.80;70.80;;;;;;4973748;28;19971;-69
2023/03/17 13:44:03;;;;;;;;;;;17.80;70.60;;;;;;4972658;28;20009;-69
2023/03/17 13:46:41;;;;;;;;;;;17.80;70.70;;;;;;4973028;28;20265;-69
2023/03/17 13:49:26;;;;;;;;;;;17.70;70.80;;;;;;4973311;28;20422;-69
2023/03/17 13:51:53;;;;;;;;;;;17.80;71.00;;;;;;4973076;28;19913;-69
2023/03/17 13:54:31;;;;;;;;;;;17.80;71.10;;;;;;4972945;28;19956;-68
2023/03/17 13:56:58;;;;;;;;;;;17.80;71.20;;;;;;4972715;28;20371;-69
2023/03/17 13:59:35;;;;;;;;;;;17.90;71.00;;;;;;4952007;28;20292;-69
2023/03/17 14:02:10;;;;;;;;;;;17.90;71.00;;;;;;4972604;28;20048;-69
2023/03/17 14:04:45;;;;;;;;;;;17.90;71.00;;;;;;4972710;28;19906;-69
2023/03/17 14:07:14;;;;;;;;;;;18.00;71.00;;;;;;4971488;28;19913;-69
2023/03/17 14:09:41;;;;;;;;;;;18.00;71.10;;;;;;4972275;28;19994;-68
2023/03/17 14:12:11;;;;;;;;;;;18.10;71.10;;;;;;4972196;28;19961;-69
2023/03/17 14:14:55;;;;;;;;;;;18.10;70.90;;;;;;4972074;28;20378;-69
2023/03/17 14:17:24;;;;;;;;;;;18.20;70.80;;;;;;4971916;28;19926;-68
2023/03/17 14:20:00;;;;;;;;;;;18.20;70.80;;;;;;4971909;28;19921;-69
2023/03/17 14:22:26;;;;;;;;;;;18.30;70.80;;;;;;4972163;28;19914;-69
2023/03/17 14:24:53;;;;;;;;;;;18.50;70.70;;;;;;4954743;28;19914;-69
2023/03/17 14:27:20;;;;;;;;;;;18.40;70.50;;;;;;4971850;28;20008;-67
2023/03/17 14:29:46;;;;;;;;;;;18.30;70.40;;;;;;4973952;28;19957;-69